createdAt,value
2023-04-14T00:00:17.586Z,3.04
2023-04-14T00:01:18.630Z,3.04
2023-04-14T00:02:16.045Z,3.19
2023-04-14T00:03:13.762Z,2.81
2023-04-14T00:04:11.868Z,3.10
2023-04-14T00:05:09.507Z,8.30
2023-04-14T00:06:06.948Z,3.88
2023-04-14T00:07:04.376Z,4.17
2023-04-14T00:08:02.134Z,10.66
2023-04-14T00:08:59.790Z,22.24
2023-04-14T00:09:57.403Z,4.86
2023-04-14T00:10:55.082Z,3.77
2023-04-14T00:11:52.442Z,3.05
2023-04-14T00:12:50.464Z,26.05
2023-04-14T00:13:47.832Z,8.59
2023-04-14T00:14:45.283Z,3.05
2023-04-14T00:15:42.799Z,3.09
2023-04-14T00:16:40.150Z,2.90
2023-04-14T00:17:37.553Z,3.10
2023-04-14T00:18:34.931Z,2.95
2023-04-14T00:19:32.227Z,2.87
2023-04-14T00:20:29.586Z,3.12
2023-04-14T00:21:27.108Z,3.03
2023-04-14T00:22:24.511Z,2.63
2023-04-14T00:23:21.831Z,3.08
2023-04-14T00:24:19.148Z,2.93
2023-04-14T00:25:16.525Z,2.96
2023-04-14T00:26:13.817Z,3.44
2023-04-14T00:27:11.390Z,3.11
2023-04-14T00:28:08.683Z,3.01
2023-04-14T00:29:06.224Z,3.25
2023-04-14T00:30:04.010Z,4.07
2023-04-14T00:31:01.344Z,3.21
2023-04-14T00:31:58.781Z,3.31
2023-04-14T00:32:56.323Z,3.21
2023-04-14T00:33:53.842Z,3.16
2023-04-14T00:34:51.173Z,3.01
2023-04-14T00:35:48.564Z,3.15
2023-04-14T00:36:45.939Z,3.73
2023-04-14T00:37:43.264Z,4.06
2023-04-14T00:38:40.520Z,3.36
2023-04-14T00:39:37.970Z,3.39
2023-04-14T00:40:35.486Z,3.63
2023-04-14T00:41:34.048Z,3.12
2023-04-14T00:42:32.039Z,3.17
2023-04-14T00:43:29.448Z,3.36
2023-04-14T00:44:26.836Z,3.11
2023-04-14T00:45:25.955Z,3.17
2023-04-14T00:46:23.420Z,2.87
2023-04-14T00:47:23.022Z,3.00
2023-04-14T00:48:20.549Z,3.02
2023-04-14T00:49:17.948Z,3.13
2023-04-14T00:50:17.307Z,3.28
2023-04-14T00:51:15.033Z,3.37
2023-04-14T00:52:12.585Z,3.10
2023-04-14T00:53:11.883Z,3.31
2023-04-14T00:54:10.039Z,2.97
2023-04-14T00:55:07.817Z,2.95
2023-04-14T00:56:05.365Z,3.26
2023-04-14T00:57:03.136Z,3.26
2023-04-14T00:58:01.428Z,3.47
2023-04-14T00:59:02.390Z,3.34
2023-04-14T01:00:01.525Z,3.49
2023-04-14T01:00:59.033Z,3.53
2023-04-14T01:01:57.059Z,3.38
2023-04-14T01:02:54.664Z,3.44
2023-04-14T01:03:52.365Z,3.25
2023-04-14T01:04:54.381Z,3.02
2023-04-14T01:05:52.290Z,3.14
2023-04-14T01:06:49.645Z,3.16
2023-04-14T01:07:48.535Z,3.07
2023-04-14T01:08:46.348Z,3.18
2023-04-14T01:09:43.696Z,3.31
2023-04-14T01:10:47.908Z,3.22
2023-04-14T01:12:07.394Z,3.33
2023-04-14T01:13:04.660Z,3.27
2023-04-14T01:14:13.712Z,3.51
2023-04-14T01:15:35.643Z,3.42
2023-04-14T01:16:35.026Z,3.50
2023-04-14T01:17:55.658Z,2.98
2023-04-14T01:19:24.994Z,2.94
2023-04-14T01:20:35.204Z,2.98
2023-04-14T01:21:38.182Z,3.08
2023-04-14T01:22:38.889Z,3.15
2023-04-14T01:23:41.154Z,3.40
2023-04-14T01:24:41.364Z,3.31
2023-04-14T01:25:41.450Z,3.33
2023-04-14T01:26:39.454Z,3.42
2023-04-14T01:27:44.524Z,3.53
2023-04-14T01:28:41.968Z,4.54
2023-04-14T01:29:39.279Z,4.72
2023-04-14T01:30:42.525Z,4.38
2023-04-14T01:31:45.887Z,4.04
2023-04-14T01:32:46.780Z,4.02
2023-04-14T01:33:47.888Z,3.43
2023-04-14T01:34:48.070Z,3.77
2023-04-14T01:35:49.708Z,8.33
2023-04-14T01:37:05.141Z,10.22
2023-04-14T01:38:07.470Z,8.95
2023-04-14T01:39:08.335Z,10.32
2023-04-14T01:40:11.496Z,10.22
2023-04-14T01:41:09.990Z,7.58
2023-04-14T01:42:13.339Z,6.83
2023-04-14T01:43:13.342Z,4.79
2023-04-14T01:44:12.894Z,4.45
2023-04-14T01:45:12.244Z,4.10
2023-04-14T01:46:14.888Z,4.95
2023-04-14T01:47:14.087Z,4.26
2023-04-14T01:48:11.909Z,3.52
2023-04-14T01:49:11.050Z,3.54
2023-04-14T01:50:10.567Z,3.22
2023-04-14T01:51:09.540Z,18.22
2023-04-14T01:52:10.661Z,3.68
2023-04-14T01:53:11.679Z,3.43
2023-04-14T01:54:11.631Z,3.22
2023-04-14T01:55:10.839Z,3.17
2023-04-14T01:56:11.369Z,3.53
2023-04-14T01:57:10.548Z,3.82
2023-04-14T01:58:09.914Z,13.84
2023-04-14T01:59:09.698Z,118.11
2023-04-14T02:00:08.131Z,81.57
2023-04-14T02:01:06.541Z,17.70
2023-04-14T02:02:08.212Z,16.42
2023-04-14T02:03:06.923Z,18.79
2023-04-14T02:04:05.513Z,10.36
2023-04-14T02:05:04.430Z,15.95
2023-04-14T02:06:04.674Z,8.83
2023-04-14T02:07:03.162Z,48.46
2023-04-14T02:08:03.873Z,17.96
2023-04-14T02:09:03.049Z,19.82
2023-04-14T02:10:04.044Z,15.22
2023-04-14T02:11:03.728Z,17.93
2023-04-14T02:12:01.332Z,16.62
2023-04-14T02:13:02.097Z,20.70
2023-04-14T02:14:00.849Z,4.76
2023-04-14T02:15:01.166Z,3.59
2023-04-14T02:16:00.890Z,16.75
2023-04-14T02:17:04.856Z,35.50
2023-04-14T02:18:04.774Z,29.55
2023-04-14T02:19:04.272Z,19.16
2023-04-14T02:20:01.946Z,11.38
2023-04-14T02:21:01.718Z,9.60
2023-04-14T02:21:59.932Z,20.35
2023-04-14T02:22:57.328Z,32.64
2023-04-14T02:23:54.676Z,22.42
2023-04-14T02:24:54.491Z,87.45
2023-04-14T02:25:54.555Z,63.60
2023-04-14T02:26:57.787Z,17.66
2023-04-14T02:27:57.127Z,13.06
2023-04-14T02:29:02.081Z,12.66
2023-04-14T02:30:03.076Z,16.96
2023-04-14T02:31:05.400Z,28.11
2023-04-14T02:32:05.431Z,16.46
2023-04-14T02:33:10.851Z,10.34
2023-04-14T02:34:10.798Z,10.39
2023-04-14T02:35:12.300Z,5.96
2023-04-14T02:36:09.738Z,19.45
2023-04-14T02:37:11.788Z,17.92
2023-04-14T02:38:14.210Z,10.38
2023-04-14T02:39:20.997Z,7.22
2023-04-14T02:40:22.030Z,4.37
2023-04-14T02:41:25.031Z,8.37
2023-04-14T02:42:26.500Z,4.15
2023-04-14T02:43:29.951Z,4.90
2023-04-14T02:44:31.621Z,3.68
2023-04-14T02:45:32.435Z,4.61
2023-04-14T02:46:33.480Z,3.24
2023-04-14T02:47:37.293Z,3.92
2023-04-14T02:48:37.257Z,4.00
2023-04-14T02:49:36.699Z,3.56
2023-04-14T02:50:35.729Z,3.47
2023-04-14T02:51:36.616Z,3.76
2023-04-14T02:52:35.053Z,3.71
2023-04-14T02:53:33.522Z,3.28
2023-04-14T02:54:34.303Z,3.19
2023-04-14T02:55:33.173Z,3.28
2023-04-14T02:56:31.108Z,3.24
2023-04-14T02:57:29.803Z,3.51
2023-04-14T02:58:29.235Z,3.36
2023-04-14T02:59:27.461Z,2.95
2023-04-14T03:00:25.764Z,3.28
2023-04-14T03:01:24.828Z,3.55
2023-04-14T03:02:22.789Z,3.35
2023-04-14T03:03:21.333Z,3.27
2023-04-14T03:04:19.256Z,3.19
2023-04-14T03:05:17.161Z,3.10
2023-04-14T03:06:16.226Z,3.68
2023-04-14T03:07:15.016Z,3.42
2023-04-14T03:08:14.617Z,3.40
2023-04-14T03:09:12.564Z,3.38
2023-04-14T03:10:11.576Z,3.54
2023-04-14T03:11:10.713Z,3.22
2023-04-14T03:12:08.202Z,3.33
2023-04-14T03:13:07.081Z,3.39
2023-04-14T03:14:06.036Z,3.46
2023-04-14T03:15:03.703Z,3.26
2023-04-14T03:16:02.281Z,3.28
2023-04-14T03:17:00.343Z,3.22
2023-04-14T03:17:58.987Z,3.54
2023-04-14T03:18:56.649Z,3.40
2023-04-14T03:19:53.997Z,3.20
2023-04-14T03:20:53.124Z,3.64
2023-04-14T03:21:51.527Z,3.55
2023-04-14T03:23:05.027Z,3.51
2023-04-14T03:24:02.901Z,3.76
2023-04-14T03:25:00.803Z,3.89
2023-04-14T03:26:00.290Z,3.53
2023-04-14T03:27:01.916Z,3.67
2023-04-14T03:28:02.018Z,3.70
2023-04-14T03:29:01.787Z,3.87
2023-04-14T03:30:01.905Z,3.73
2023-04-14T03:31:03.852Z,3.76
2023-04-14T03:32:06.807Z,3.82
2023-04-14T03:33:07.063Z,3.74
2023-04-14T03:34:07.270Z,3.84
2023-04-14T03:35:04.995Z,3.64
2023-04-14T03:36:03.682Z,3.63
2023-04-14T03:37:02.462Z,3.52
2023-04-14T03:38:00.984Z,3.31
2023-04-14T03:39:03.055Z,3.70
2023-04-14T03:40:04.411Z,3.33
2023-04-14T03:41:05.487Z,3.70
2023-04-14T03:42:04.035Z,3.25
2023-04-14T03:43:03.123Z,3.58
2023-04-14T03:44:01.670Z,3.31
2023-04-14T03:45:00.656Z,3.23
2023-04-14T03:45:58.210Z,3.57
2023-04-14T03:46:56.408Z,3.28
2023-04-14T03:47:57.900Z,3.16
2023-04-14T03:48:56.955Z,3.15
2023-04-14T03:49:57.676Z,3.30
2023-04-14T03:50:57.751Z,3.34
2023-04-14T03:51:59.898Z,3.36
2023-04-14T03:52:59.343Z,3.53
2023-04-14T03:53:58.354Z,3.24
2023-04-14T03:54:59.023Z,3.19
2023-04-14T03:55:59.849Z,3.55
2023-04-14T03:56:59.234Z,3.16
2023-04-14T03:57:58.596Z,3.13
2023-04-14T03:58:58.033Z,3.46
2023-04-14T03:59:57.383Z,3.25
2023-04-14T04:00:56.539Z,3.44
2023-04-14T04:01:55.567Z,3.41
2023-04-14T04:02:53.761Z,3.29
2023-04-14T04:03:53.741Z,3.30
2023-04-14T04:04:53.309Z,3.73
2023-04-14T04:05:51.867Z,3.43
2023-04-14T04:06:50.191Z,3.50
2023-04-14T04:07:50.245Z,3.10
2023-04-14T04:08:49.555Z,3.33
2023-04-14T04:09:48.575Z,3.39
2023-04-14T04:10:48.230Z,3.46
2023-04-14T04:11:47.490Z,3.48
2023-04-14T04:12:47.310Z,3.52
2023-04-14T04:13:47.710Z,3.38
2023-04-14T04:14:45.226Z,3.48
2023-04-14T04:15:44.204Z,3.42
2023-04-14T04:16:42.675Z,3.35
2023-04-14T04:17:41.747Z,3.51
2023-04-14T04:18:39.759Z,2.90
2023-04-14T04:19:39.323Z,3.28
2023-04-14T04:20:40.790Z,3.50
2023-04-14T04:21:40.935Z,3.37
2023-04-14T04:22:41.030Z,3.64
2023-04-14T04:23:42.515Z,3.21
2023-04-14T04:24:40.737Z,3.46
2023-04-14T04:25:40.572Z,3.47
2023-04-14T04:26:38.122Z,3.26
2023-04-14T04:27:36.155Z,3.56
2023-04-14T04:28:33.957Z,3.30
2023-04-14T04:29:32.031Z,3.42
2023-04-14T04:30:31.489Z,3.51
2023-04-14T04:31:29.035Z,3.35
2023-04-14T04:32:27.050Z,3.28
2023-04-14T04:33:26.575Z,3.28
2023-04-14T04:34:25.699Z,3.41
2023-04-14T04:35:24.779Z,3.22
2023-04-14T04:36:22.198Z,3.64
2023-04-14T04:37:19.957Z,3.55
2023-04-14T04:38:17.275Z,3.24
2023-04-14T04:39:14.697Z,3.22
2023-04-14T04:40:12.332Z,3.37
2023-04-14T04:41:28.618Z,3.53
2023-04-14T04:42:25.954Z,3.43
2023-04-14T04:43:23.296Z,3.31
2023-04-14T04:44:20.609Z,3.34
2023-04-14T04:45:36.579Z,3.35
2023-04-14T04:46:46.860Z,3.34
2023-04-14T04:47:44.223Z,3.66
2023-04-14T04:48:41.577Z,3.58
2023-04-14T04:49:38.895Z,3.27
2023-04-14T04:50:36.196Z,3.12
2023-04-14T04:51:33.619Z,3.34
2023-04-14T04:52:31.075Z,3.25
2023-04-14T04:53:28.374Z,3.55
2023-04-14T04:54:27.162Z,3.45
2023-04-14T04:55:24.510Z,3.61
2023-04-14T04:56:21.870Z,3.28
2023-04-14T04:57:19.383Z,2.98
2023-04-14T04:58:16.829Z,3.36
2023-04-14T04:59:14.394Z,3.32
2023-04-14T05:00:12.010Z,3.63
2023-04-14T05:01:10.047Z,3.57
2023-04-14T05:02:07.924Z,3.48
2023-04-14T05:03:05.731Z,3.45
2023-04-14T05:04:03.337Z,3.65
2023-04-14T05:05:03.740Z,3.67
2023-04-14T05:06:01.469Z,3.37
2023-04-14T05:06:59.161Z,3.70
2023-04-14T05:07:56.470Z,3.63
2023-04-14T05:08:54.693Z,3.35
2023-04-14T05:09:52.022Z,3.56
2023-04-14T05:10:49.324Z,3.80
2023-04-14T05:11:47.050Z,3.83
2023-04-14T05:12:44.497Z,3.52
2023-04-14T05:13:41.915Z,3.51
2023-04-14T05:14:39.217Z,3.51
2023-04-14T05:15:36.541Z,3.19
2023-04-14T05:16:34.089Z,3.77
2023-04-14T05:17:31.485Z,3.34
2023-04-14T05:18:28.977Z,3.70
2023-04-14T05:19:26.349Z,3.67
2023-04-14T05:20:23.690Z,3.35
2023-04-14T05:21:21.153Z,3.50
2023-04-14T05:22:18.634Z,3.17
2023-04-14T05:23:16.080Z,3.54
2023-04-14T05:24:13.434Z,3.82
2023-04-14T05:25:10.778Z,3.59
2023-04-14T05:26:31.242Z,3.55
2023-04-14T05:27:25.869Z,4.08
2023-04-14T05:28:23.599Z,3.71
2023-04-14T05:29:20.899Z,3.56
2023-04-14T05:30:18.297Z,3.80
2023-04-14T05:31:15.715Z,3.95
2023-04-14T05:32:14.627Z,4.10
2023-04-14T05:33:12.057Z,3.91
2023-04-14T05:34:09.407Z,3.57
2023-04-14T05:35:06.932Z,3.83
2023-04-14T05:36:04.354Z,3.99
2023-04-14T05:37:01.761Z,3.95
2023-04-14T05:37:59.184Z,3.86
2023-04-14T05:38:56.508Z,3.59
2023-04-14T05:39:53.803Z,3.82
2023-04-14T05:40:51.186Z,3.74
2023-04-14T05:41:48.511Z,3.80
2023-04-14T05:42:45.798Z,3.58
2023-04-14T05:43:43.126Z,3.45
2023-04-14T05:44:40.553Z,3.53
2023-04-14T05:45:37.910Z,3.64
2023-04-14T05:46:35.773Z,3.33
2023-04-14T05:47:33.260Z,3.38
2023-04-14T05:48:32.340Z,3.78
2023-04-14T05:49:29.614Z,3.51
2023-04-14T05:50:27.224Z,3.53
2023-04-14T05:51:24.610Z,3.83
2023-04-14T05:52:22.163Z,3.90
2023-04-14T05:53:19.461Z,3.62
2023-04-14T05:54:16.894Z,3.33
2023-04-14T05:55:14.538Z,3.45
2023-04-14T05:56:11.917Z,3.79
2023-04-14T05:57:09.260Z,3.65
2023-04-14T05:58:06.622Z,3.76
2023-04-14T05:59:03.942Z,3.46
2023-04-14T06:00:01.402Z,3.80
2023-04-14T06:00:58.841Z,3.83
2023-04-14T06:01:56.237Z,3.65
2023-04-14T06:02:53.872Z,3.82
2023-04-14T06:03:51.501Z,3.97
2023-04-14T06:04:49.377Z,3.81
2023-04-14T06:05:48.301Z,3.88
2023-04-14T06:06:45.720Z,3.74
2023-04-14T06:07:43.181Z,3.55
2023-04-14T06:08:40.490Z,3.79
2023-04-14T06:09:37.840Z,3.76
2023-04-14T06:10:35.906Z,3.97
2023-04-14T06:11:33.300Z,3.80
2023-04-14T06:12:30.796Z,3.64
2023-04-14T06:13:31.101Z,3.69
2023-04-14T06:14:29.445Z,3.84
2023-04-14T06:15:29.603Z,3.86
2023-04-14T06:16:26.964Z,3.95
2023-04-14T06:17:24.371Z,3.51
2023-04-14T06:18:22.942Z,3.87
2023-04-14T06:19:20.267Z,3.64
2023-04-14T06:20:18.649Z,4.07
2023-04-14T06:21:16.025Z,4.08
2023-04-14T06:22:16.876Z,4.10
2023-04-14T06:23:14.311Z,3.77
2023-04-14T06:24:11.630Z,3.85
2023-04-14T06:25:09.289Z,3.81
2023-04-14T06:26:06.861Z,4.09
2023-04-14T06:27:04.196Z,4.03
2023-04-14T06:28:04.286Z,4.25
2023-04-14T06:29:01.907Z,4.06
2023-04-14T06:30:00.857Z,4.29
2023-04-14T06:30:58.369Z,4.38
2023-04-14T06:31:56.485Z,4.08
2023-04-14T06:32:55.315Z,3.92
2023-04-14T06:33:53.047Z,3.85
2023-04-14T06:34:52.605Z,4.03
2023-04-14T06:35:50.757Z,4.12
2023-04-14T06:36:48.107Z,4.08
2023-04-14T06:37:45.560Z,4.18
2023-04-14T06:38:42.894Z,4.06
2023-04-14T06:39:40.547Z,3.80
2023-04-14T06:40:37.837Z,3.79
2023-04-14T06:41:35.212Z,4.02
2023-04-14T06:42:32.676Z,3.82
2023-04-14T06:43:29.957Z,4.32
2023-04-14T06:44:27.291Z,4.20
2023-04-14T06:45:24.696Z,4.30
2023-04-14T06:46:22.246Z,4.13
2023-04-14T06:47:21.016Z,4.07
2023-04-14T06:48:18.486Z,3.99
2023-04-14T06:49:17.570Z,3.84
2023-04-14T06:50:14.925Z,4.10
2023-04-14T06:51:13.762Z,4.08
2023-04-14T06:52:11.058Z,3.78
2023-04-14T06:53:09.366Z,4.13
2023-04-14T06:54:06.762Z,3.97
2023-04-14T06:55:04.216Z,3.97
2023-04-14T06:56:02.533Z,4.11
2023-04-14T06:57:01.104Z,4.08
2023-04-14T06:57:58.661Z,4.02
2023-04-14T06:58:56.053Z,3.80
2023-04-14T06:59:53.459Z,4.05
2023-04-14T07:00:54.802Z,3.87
2023-04-14T07:01:52.292Z,3.61
2023-04-14T07:02:49.725Z,3.78
2023-04-14T07:03:47.208Z,3.96
2023-04-14T07:04:44.686Z,3.63
2023-04-14T07:05:42.163Z,3.82
2023-04-14T07:06:39.474Z,3.48
2023-04-14T07:07:37.244Z,4.09
2023-04-14T07:08:35.498Z,4.28
2023-04-14T07:09:32.908Z,4.15
2023-04-14T07:10:30.222Z,4.03
2023-04-14T07:11:27.648Z,4.01
2023-04-14T07:12:24.926Z,3.83
2023-04-14T07:13:22.327Z,4.25
2023-04-14T07:14:19.596Z,4.02
2023-04-14T07:15:17.033Z,4.12
2023-04-14T07:16:14.446Z,4.12
2023-04-14T07:17:11.827Z,3.99
2023-04-14T07:18:09.203Z,3.95
2023-04-14T07:19:07.253Z,4.00
2023-04-14T07:20:05.411Z,3.86
2023-04-14T07:21:03.047Z,4.17
2023-04-14T07:22:00.363Z,3.72
2023-04-14T07:22:57.696Z,4.13
2023-04-14T07:23:55.049Z,3.73
2023-04-14T07:24:53.762Z,3.79
2023-04-14T07:25:54.905Z,3.92
2023-04-14T07:26:52.215Z,4.00
2023-04-14T07:28:02.025Z,4.03
2023-04-14T07:29:00.935Z,4.08
2023-04-14T07:29:58.649Z,3.79
2023-04-14T07:30:56.817Z,3.91
2023-04-14T07:31:54.783Z,4.01
2023-04-14T07:32:52.435Z,3.79
2023-04-14T07:33:49.734Z,3.74
2023-04-14T07:34:47.155Z,3.79
2023-04-14T07:35:58.215Z,3.62
2023-04-14T07:36:59.115Z,4.04
2023-04-14T07:37:56.625Z,3.91
2023-04-14T07:38:54.030Z,4.02
2023-04-14T07:39:51.322Z,4.03
2023-04-14T07:40:48.647Z,3.66
2023-04-14T07:41:45.932Z,3.54
2023-04-14T07:42:43.282Z,3.63
2023-04-14T07:43:40.632Z,3.52
2023-04-14T07:44:37.980Z,3.86
2023-04-14T07:45:35.396Z,3.52
2023-04-14T07:46:32.822Z,3.72
2023-04-14T07:47:30.209Z,3.65
2023-04-14T07:48:27.798Z,3.73
2023-04-14T07:49:25.155Z,3.80
2023-04-14T07:50:22.506Z,3.99
2023-04-14T07:51:19.991Z,3.68
2023-04-14T07:52:17.771Z,3.88
2023-04-14T07:53:15.392Z,3.65
2023-04-14T07:54:12.843Z,3.18
2023-04-14T07:55:10.151Z,3.41
2023-04-14T07:56:08.137Z,3.70
2023-04-14T07:57:05.510Z,4.00
2023-04-14T07:58:03.038Z,3.87
2023-04-14T07:59:00.707Z,3.97
2023-04-14T07:59:58.105Z,3.77
2023-04-14T08:00:55.511Z,3.72
2023-04-14T08:01:52.909Z,3.52
2023-04-14T08:02:50.650Z,3.97
2023-04-14T08:03:48.328Z,3.81
2023-04-14T08:04:45.945Z,3.65
2023-04-14T08:05:43.942Z,3.60
2023-04-14T08:06:41.620Z,3.73
2023-04-14T08:07:38.920Z,3.71
2023-04-14T08:08:36.742Z,3.58
2023-04-14T08:09:34.863Z,3.99
2023-04-14T08:10:32.289Z,3.99
2023-04-14T08:11:29.690Z,4.02
2023-04-14T08:12:27.054Z,3.95
2023-04-14T08:13:24.401Z,3.94
2023-04-14T08:14:22.038Z,3.54
2023-04-14T08:15:19.503Z,3.87
2023-04-14T08:16:17.094Z,3.87
2023-04-14T08:17:14.642Z,3.85
2023-04-14T08:18:12.002Z,3.60
2023-04-14T08:19:09.516Z,3.76
2023-04-14T08:20:07.193Z,4.11
2023-04-14T08:21:04.598Z,3.86
2023-04-14T08:22:02.419Z,3.91
2023-04-14T08:22:59.867Z,3.95
2023-04-14T08:23:57.345Z,3.64
2023-04-14T08:24:54.679Z,3.99
2023-04-14T08:25:52.412Z,3.82
2023-04-14T08:26:49.802Z,4.11
2023-04-14T08:27:47.275Z,4.19
2023-04-14T08:28:44.717Z,5.14
2023-04-14T08:29:42.165Z,6.70
2023-04-14T08:30:39.720Z,6.17
2023-04-14T08:31:37.070Z,6.02
2023-04-14T08:32:34.469Z,6.25
2023-04-14T08:33:33.848Z,5.34
2023-04-14T08:34:31.349Z,6.34
2023-04-14T08:35:39.239Z,5.15
2023-04-14T08:36:38.708Z,5.03
2023-04-14T08:37:36.220Z,5.12
2023-04-14T08:38:33.634Z,5.20
2023-04-14T08:39:31.246Z,4.54
2023-04-14T08:40:47.774Z,4.81
2023-04-14T08:41:45.395Z,4.41
2023-04-14T08:42:42.735Z,4.58
2023-04-14T08:43:40.547Z,4.73
2023-04-14T08:44:37.934Z,5.41
2023-04-14T08:45:36.660Z,5.33
2023-04-14T08:46:35.775Z,4.86
2023-04-14T08:47:35.831Z,4.34
2023-04-14T08:48:36.514Z,4.21
2023-04-14T08:49:49.357Z,4.05
2023-04-14T08:50:56.691Z,4.09
2023-04-14T08:51:55.463Z,3.83
2023-04-14T08:52:55.822Z,3.87
2023-04-14T08:53:55.272Z,4.27
2023-04-14T08:54:56.643Z,4.05
2023-04-14T08:55:57.487Z,4.15
2023-04-14T08:56:57.453Z,3.65
2023-04-14T08:57:55.421Z,3.80
2023-04-14T08:58:53.456Z,3.83
2023-04-14T08:59:51.664Z,3.59
2023-04-14T09:00:49.662Z,3.92
2023-04-14T09:01:47.635Z,4.23
2023-04-14T09:02:45.964Z,4.05
2023-04-14T09:03:43.845Z,4.38
2023-04-14T09:04:42.610Z,4.18
2023-04-14T09:05:41.319Z,3.99
2023-04-14T09:06:38.762Z,4.38
2023-04-14T09:07:37.130Z,4.17
2023-04-14T09:08:35.633Z,4.12
2023-04-14T09:09:33.127Z,4.03
2023-04-14T09:10:30.655Z,4.24
2023-04-14T09:11:28.093Z,4.06
2023-04-14T09:12:27.323Z,4.11
2023-04-14T09:13:26.295Z,4.22
2023-04-14T09:14:24.218Z,4.14
2023-04-14T09:15:21.690Z,4.00
2023-04-14T09:16:19.181Z,4.06
2023-04-14T09:17:17.388Z,3.99
2023-04-14T09:18:14.908Z,3.41
2023-04-14T09:19:12.589Z,3.99
2023-04-14T09:20:36.654Z,4.07
2023-04-14T09:21:50.592Z,4.79
2023-04-14T09:22:46.123Z,4.60
2023-04-14T09:23:43.732Z,4.78
2023-04-14T09:24:41.069Z,4.54
2023-04-14T09:25:39.595Z,4.95
2023-04-14T09:26:37.706Z,4.07
2023-04-14T09:27:35.414Z,4.78
2023-04-14T09:28:32.780Z,4.66
2023-04-14T09:29:30.459Z,4.67
2023-04-14T09:30:28.786Z,5.16
2023-04-14T09:31:27.205Z,4.64
2023-04-14T09:32:25.801Z,4.51
2023-04-14T09:33:23.428Z,4.63
2023-04-14T09:34:21.605Z,4.75
2023-04-14T09:35:18.994Z,4.64
2023-04-14T09:36:20.056Z,4.74
2023-04-14T09:37:17.788Z,4.70
2023-04-14T09:38:16.130Z,4.48
2023-04-14T09:39:17.768Z,4.19
2023-04-14T09:40:28.855Z,4.44
2023-04-14T09:41:26.296Z,4.58
2023-04-14T09:42:37.889Z,4.35
2023-04-14T09:43:36.869Z,4.22
2023-04-14T09:44:34.314Z,4.49
2023-04-14T09:45:45.007Z,4.40
2023-04-14T09:47:02.241Z,4.26
2023-04-14T09:48:10.918Z,3.98
2023-04-14T09:49:08.290Z,4.57
2023-04-14T09:50:05.958Z,4.07
2023-04-14T09:51:07.096Z,4.28
2023-04-14T09:52:06.326Z,4.57
2023-04-14T09:53:04.360Z,4.56
2023-04-14T09:54:05.241Z,4.17
2023-04-14T09:55:04.222Z,4.05
2023-04-14T09:56:07.269Z,4.42
2023-04-14T09:57:04.692Z,4.54
2023-04-14T09:58:02.692Z,4.22
2023-04-14T09:59:02.749Z,4.38
2023-04-14T10:00:01.192Z,4.65
2023-04-14T10:00:59.488Z,4.45
2023-04-14T10:01:59.136Z,4.75
2023-04-14T10:02:58.333Z,4.28
2023-04-14T10:03:55.860Z,4.43
2023-04-14T10:05:06.537Z,4.42
2023-04-14T10:06:06.590Z,4.28
2023-04-14T10:07:11.212Z,4.48
2023-04-14T10:08:08.530Z,4.50
2023-04-14T10:09:05.918Z,4.45
2023-04-14T10:10:07.706Z,5.08
2023-04-14T10:11:21.474Z,4.43
2023-04-14T10:12:19.323Z,4.25
2023-04-14T10:13:18.880Z,4.61
2023-04-14T10:14:16.307Z,4.50
2023-04-14T10:15:15.394Z,4.23
2023-04-14T10:16:12.723Z,4.55
2023-04-14T10:17:10.514Z,4.69
2023-04-14T10:18:08.097Z,4.61
2023-04-14T10:19:06.030Z,4.47
2023-04-14T10:20:04.786Z,4.60
2023-04-14T10:21:03.590Z,4.76
2023-04-14T10:22:01.916Z,4.91
2023-04-14T10:23:00.698Z,4.27
2023-04-14T10:23:58.556Z,4.15
2023-04-14T10:24:58.661Z,4.37
2023-04-14T10:25:57.054Z,4.23
2023-04-14T10:26:54.649Z,4.50
2023-04-14T10:27:52.486Z,4.39
2023-04-14T10:28:54.492Z,3.92
2023-04-14T10:29:52.011Z,4.22
2023-04-14T10:30:52.073Z,4.20
2023-04-14T10:31:56.240Z,4.09
2023-04-14T10:32:53.942Z,4.25
2023-04-14T10:33:52.514Z,4.17
2023-04-14T10:35:22.172Z,4.13
2023-04-14T10:36:26.235Z,3.83
2023-04-14T10:37:23.674Z,3.95
2023-04-14T10:38:21.503Z,4.45
2023-04-14T10:39:25.844Z,4.05
2023-04-14T10:40:23.477Z,3.99
2023-04-14T10:41:21.112Z,3.79
2023-04-14T10:42:18.459Z,3.84
2023-04-14T10:43:16.203Z,4.03
2023-04-14T10:44:28.785Z,4.00
2023-04-14T10:45:26.244Z,4.06
2023-04-14T10:46:24.463Z,3.75
2023-04-14T10:47:28.184Z,3.55
2023-04-14T10:48:26.973Z,2.99
2023-04-14T10:49:44.565Z,3.19
2023-04-14T10:50:47.547Z,3.09
2023-04-14T10:51:49.214Z,3.23
2023-04-14T10:52:58.963Z,2.97
2023-04-14T10:53:57.467Z,2.83
2023-04-14T10:54:58.160Z,2.72
2023-04-14T10:55:58.472Z,2.60
2023-04-14T10:57:08.377Z,3.20
2023-04-14T10:58:08.966Z,2.70
2023-04-14T10:59:07.052Z,2.51
2023-04-14T11:00:23.266Z,2.78
2023-04-14T11:01:21.830Z,3.47
2023-04-14T11:02:30.166Z,2.91
2023-04-14T11:03:32.705Z,3.32
2023-04-14T11:04:30.678Z,3.46
2023-04-14T11:05:28.376Z,3.50
2023-04-14T11:06:44.193Z,3.45
2023-04-14T11:07:45.748Z,3.40
2023-04-14T11:08:50.094Z,2.75
2023-04-14T11:09:48.981Z,2.72
2023-04-14T11:10:51.117Z,2.44
2023-04-14T11:11:48.510Z,2.40
2023-04-14T11:12:47.016Z,2.85
2023-04-14T11:13:44.443Z,2.31
2023-04-14T11:14:41.855Z,2.07
2023-04-14T11:15:57.236Z,2.10
2023-04-14T11:17:05.297Z,2.02
2023-04-14T11:18:11.280Z,1.84
2023-04-14T11:19:15.513Z,1.89
2023-04-14T11:20:14.090Z,1.74
2023-04-14T11:21:14.446Z,1.70
2023-04-14T11:22:11.868Z,1.68
2023-04-14T11:23:10.375Z,1.52
2023-04-14T11:24:07.831Z,1.56
2023-04-14T11:25:05.466Z,1.37
2023-04-14T11:26:05.530Z,1.07
2023-04-14T11:27:02.993Z,1.07
2023-04-14T11:28:06.151Z,1.19
2023-04-14T11:29:08.244Z,1.54
2023-04-14T11:30:09.950Z,1.63
2023-04-14T11:31:08.834Z,1.74
2023-04-14T11:32:06.543Z,1.89
2023-04-14T11:33:04.163Z,2.29
2023-04-14T11:34:04.782Z,2.02
2023-04-14T11:35:08.471Z,1.52
2023-04-14T11:36:07.342Z,1.39
2023-04-14T11:37:04.967Z,1.49
2023-04-14T11:38:02.379Z,1.55
2023-04-14T11:39:00.213Z,1.17
2023-04-14T11:39:57.798Z,0.96
2023-04-14T11:40:56.750Z,0.85
2023-04-14T11:41:56.130Z,0.84
2023-04-14T11:42:54.951Z,1.24
2023-04-14T11:43:52.952Z,1.34
2023-04-14T11:44:57.223Z,1.10
2023-04-14T11:45:54.756Z,0.98
2023-04-14T11:46:52.283Z,0.92
2023-04-14T11:47:49.792Z,0.91
2023-04-14T11:48:47.182Z,0.92
2023-04-14T11:49:44.499Z,0.82
2023-04-14T11:50:43.739Z,0.80
2023-04-14T11:51:41.315Z,0.84
2023-04-14T11:52:43.844Z,0.74
2023-04-14T11:53:41.406Z,0.88
2023-04-14T11:54:39.832Z,0.91
2023-04-14T11:55:37.844Z,0.80
2023-04-14T11:56:35.190Z,0.74
2023-04-14T11:57:32.573Z,0.95
2023-04-14T11:58:30.355Z,0.81
2023-04-14T11:59:27.880Z,1.07
2023-04-14T12:00:25.441Z,1.14
2023-04-14T12:01:24.199Z,1.00
2023-04-14T12:02:22.168Z,0.91
2023-04-14T12:03:20.710Z,0.87
2023-04-14T12:04:18.397Z,0.88
2023-04-14T12:05:21.627Z,0.93
2023-04-14T12:06:19.323Z,0.87
2023-04-14T12:07:17.734Z,0.68
2023-04-14T12:08:15.122Z,1.17
2023-04-14T12:09:12.426Z,1.45
2023-04-14T12:10:09.970Z,1.62
2023-04-14T12:11:14.031Z,5.31
2023-04-14T12:12:13.286Z,3.82
2023-04-14T12:13:14.467Z,1.82
2023-04-14T12:14:12.342Z,1.45
2023-04-14T12:15:10.173Z,2.08
2023-04-14T12:16:08.248Z,2.51
2023-04-14T12:17:06.864Z,2.89
2023-04-14T12:18:05.601Z,2.15
2023-04-14T12:19:03.653Z,1.81
2023-04-14T12:20:01.935Z,1.84
2023-04-14T12:21:03.625Z,1.83
2023-04-14T12:22:01.351Z,1.63
2023-04-14T12:23:04.803Z,1.43
2023-04-14T12:24:02.580Z,1.20
2023-04-14T12:24:59.980Z,1.29
2023-04-14T12:25:57.706Z,1.27
2023-04-14T12:26:55.969Z,1.68
2023-04-14T12:27:56.546Z,4.88
2023-04-14T12:28:58.182Z,3.51
2023-04-14T12:29:56.373Z,1.52
2023-04-14T12:30:54.996Z,1.87
2023-04-14T12:31:53.887Z,1.39
2023-04-14T12:32:52.976Z,1.33
2023-04-14T12:33:50.376Z,1.26
2023-04-14T12:34:57.779Z,3.61
2023-04-14T12:36:06.068Z,1.56
2023-04-14T12:37:07.414Z,1.44
2023-04-14T12:38:14.919Z,1.89
2023-04-14T12:39:13.055Z,1.64
2023-04-14T12:40:11.376Z,7.66
2023-04-14T12:41:10.946Z,15.16
2023-04-14T12:42:08.641Z,23.19
2023-04-14T12:43:06.313Z,6.34
2023-04-14T12:44:12.189Z,10.76
2023-04-14T12:45:10.009Z,10.50
2023-04-14T12:46:08.135Z,6.06
2023-04-14T12:47:05.919Z,18.56
2023-04-14T12:48:03.582Z,6.23
2023-04-14T12:49:01.337Z,4.68
2023-04-14T12:50:00.361Z,8.83
2023-04-14T12:51:11.691Z,4.72
2023-04-14T12:52:10.019Z,8.67
2023-04-14T12:53:23.661Z,3.90
2023-04-14T12:54:20.981Z,25.07
2023-04-14T12:55:29.749Z,5.04
2023-04-14T12:56:27.433Z,5.94
2023-04-14T12:57:24.735Z,18.61
2023-04-14T12:58:23.265Z,13.40
2023-04-14T12:59:20.655Z,240.27
2023-04-14T13:00:18.336Z,315.78
2023-04-14T13:01:17.424Z,119.07
2023-04-14T13:02:15.441Z,96.32
2023-04-14T13:03:13.060Z,135.13
2023-04-14T13:04:10.759Z,18.87
2023-04-14T13:05:08.507Z,8.58
2023-04-14T13:06:06.109Z,38.15
2023-04-14T13:07:03.588Z,13.38
2023-04-14T13:08:02.139Z,43.72
2023-04-14T13:09:00.583Z,15.28